Nashville, TN (37204)

3:18 PM CST on December 27, 2014 (GMT -0600)
APRSWXNET Nashville TN US | Change Station
CLOSE
Current Station
Personal Weather Station
Location: Nashville, TN
Elevation: 728 ft
Nearby Weather Stations

Elev 728 ft 36.14 °N, 86.80 °W | Updated 48 minutes ago

Rain
Rain
51 °F
Feels Like 51 °F
N
5
Wind Variable Wind from South
Gusts 9.0 mph

Today
High -- | Low -- °F
--% Chance of Precip.
Yesterday
High -- | Low -- °F
Precip. -- in
6:56 AM 4:39 PM
Waxing Crescent, 40% visible
Pressure 30.14 in
Visibility 2.0 miles
Clouds Few 1500 ft
Mostly Cloudy 4400 ft
Overcast 6500 ft
Dew Point 47 °F
Humidity 85%
Rainfall 0.03 in
Snow Depth Not available.
UV 0 out of 12
Pollen .10 out of 12
Air Quality Not available.
Flu Activity Not available.
SPECI KBNA 272109Z 17009KT 2SM RA BR FEW015 BKN044 OVC065 09/08 A3014 RMK AO2 SFC VIS 3 P0010

More Conditions Fewer Conditions

Pressure 30.14 in
Visibility 2.0 miles
Clouds Few 1500 ft
Mostly Cloudy 4400 ft
Overcast 6500 ft
Dew Point 47 °F
Humidity 85%
Rainfall 0.03 in
Snow Depth Not available.
UV 0 out of 12
Pollen .10 out of 12
Air Quality Not available.
Flu Activity Not available.
SPECI KBNA 272109Z 17009KT 2SM RA BR FEW015 BKN044 OVC065 09/08 A3014 RMK AO2 SFC VIS 3 P0010

More Conditions Fewer Conditions

10-Day Weather Forecast

Almanac

Astronomy

Dec. 27, 2014 Rise Set
Actual Time
Civil Twilight
Nautical Twilight
Astronomical Twilight
Moon
Length of Visible Light
Length of Day
Tomorrow will be .
, % of the Moon is Illuminated

Today's Extremes

State Highs State Lows

Community

WunderPhotos

Upload Photos

1,781,065 photos uploaded!

WunderBlogs® & News

Nearby

Air Quality

  Air Quality AQ Index Pollutant
Not available.

Snow Depth

Station Depth Elevation

Earthquake Activity

City Distance Mag. Time & Date
Minimum magnitude displayed is 2.5.

Coastal Water Temperatures

Place Temperature

Nearby Weather Stations